COJ weather

Coonabarabran Airport
New South Wales, Australia

Public forecast

Using degrees Celsius for public forecast. Weather courtesy of forecast.io.

Current aviation weather report (METAR) for Coonabarabran Airport

Retrieved 2020/01/27 20:00 UTC (55 minutes ago):

YCBB 272000Z AUTO 35014KT 9999 // NCD 23/18 Q1015

Closest aviation forecast (TAF) to Coonabarabran Airport

Closest forecast is Dubbo City Regional Airport, 63.8 nm (118.1 km) SSW. Retrieved 2020/01/27 18:36 UTC (2 hours ago):

TAF YSDU 271623Z 2718/2812 02005KT CAVOK FM272100 34010KT CAVOK BECMG 2800/2802 31010KT 9999 -SHRA SCT050 BECMG 2809/2811 22005KT CAVOK PROB30 TEMPO 2801/2809 VRB25G40KT 2000 TSRA BKN020 SCT050CB